This demonstration page uses our WeatherBlox Daily Observations layout. Learn more.

41.86663, -103.66717

Hourly Observations for May 30, 2019

Temp ( °F °C ) Dew Point ( °F °C ) Humidity (%) Winds ( mph kmh ) Pressure ( in mb ) Visibility ( mi km ) Precip ( " mm )
12:53 am 00:53 Mostly Cloudy 49 9.4 44 6.7 83 83 NW 8 13 29.94 1014 10 16.09344 0 0
1:53 am 01:53 Clear 46 7.8 43 6.1 89 89 NW 7 11 29.94 1014 10 16.09344 0 0
2:53 am 02:53 Clear 44 6.7 42 5.6 93 93 NW 7 11 29.97 1015 10 16.09344 0 0
3:53 am 03:53 Clear 43 6.1 40 4.4 89 89 WNW 7 11 29.97 1015 10 16.09344 0 0
4:53 am 04:53 Clear 42 5.6 40 4.4 92 92 NNW 6 9 29.97 1015 10 16.09344 0 0
5:53 am 05:53 Sunny 42 5.6 40 4.4 92 92 NW 8 13 30 1016 10 16.09344 0 0
6:53 am 06:53 Sunny 47 8.3 42 5.6 83 83 NW 9 15 30 1016 10 16.09344 0 0
7:53 am 07:53 Sunny 52 11.1 43 6.1 72 72 NW 12 19 30 1016 10 16.09344 0 0
8:53 am 08:53 Sunny 57 13.9 44 6.7 62 62 NW 12 19 30 1016 10 16.09344 0 0
9:53 am 09:53 Sunny 62 16.7 47 8.3 58 58 WNW 9 15 30 1016 10 16.09344 0 0
10:53 am 10:53 Sunny 66 18.9 49 9.4 54 54 W 8 13 30 1016 10 16.09344 0 0
11:53 am 11:53 Sunny 70 21.1 49 9.4 47 47 NW 8 13 30 1016 10 16.09344 0 0
12:53 pm 12:53 Sunny 71 21.7 49 9.4 46 46 VRB 3 6 29.97 1015 10 16.09344 0 0
1:53 pm 13:53 Sunny 73 22.8 50 10 44 44 W 5 7 29.97 1015 10 16.09344 0 0
2:53 pm 14:53 Sunny 73 22.8 49 9.4 43 43 VRB 7 11 29.97 1015 10 16.09344 0 0
3:53 pm 15:53 Sunny 74 23.3 49 9.4 41 41 SSW 5 7 29.94 1014 10 16.09344 0 0
4:53 pm 16:53 Mostly Sunny 73 22.8 48 8.9 41 41 Calm 29.94 1014 10 16.09344 0 0
5:53 pm 17:53 Sunny 73 22.8 49 9.4 43 43 Calm 29.94 1014 10 16.09344 0 0
6:53 pm 18:53 Sunny 71 21.7 48 8.9 44 44 ESE 5 7 29.94 1014 10 16.09344 0 0
7:53 pm 19:53 Mostly Sunny 65 18.3 51 10.6 61 61 ENE 8 13 29.94 1014 10 16.09344 0 0
8:53 pm 20:53 Clear 60 15.6 51 10.6 72 72 E 7 11 29.94 1014 10 16.09344 0 0
9:53 pm 21:53 Clear 58 14.4 50 10 75 75 E 3 6 29.97 1015 10 16.09344 0 0
10:53 pm 22:53 Clear 56 13.3 50 10 81 81 E 6 9 29.97 1015 10 16.09344 0 0
11:53 pm 23:53 Clear 55 12.8 49 9.4 80 80 E 5 7 29.94 1014 9 14.484096 0 0

Powered by AerisWeather